Terminal Aerodrome Forecast
Issued by NWS

Home | Current Version | Previous Version | Text Only | Print | Product List | Glossary On
Versions: 1 2 3 4 5 6 7 8 9 10 11 12 13 14
000
FTUS43 KMQT 290819 AAB
TAFIWD
TAF AMD
KIWD 290819Z 2908/3006 VRB06KT P6SM VCSH SCT020 BKN035
     FM291000 VRB06KT P6SM BKN030
     FM291100 20006KT P6SM SCT030 BKN100
     FM291700 28004KT P6SM FEW130
     FM292300 00000KT P6SM FEW200
      AMD LTD TO CLD VIS AND WIND=

USA.gov is the U.S. government's official web portal to all federal, state and local government web resources and services.